Time;durP1;ratioP1;P1;durP2;ratioP2;P2;SDS_P1;SDS_P2;PMS_P1;PMS_P2;Temp;Humidity;BMP_temperature;BMP_pressure;BME280_temperature;BME280_humidity;BME280_pressure;Samples;Min_cycle;Max_cycle;Signal;HPM_P1;HPM_P2
2020/12/25 00:01:27;;;;;;;140.27;35.15;;;2.20;91.10;;;;;;5055022;28;20479;-79
2020/12/25 00:03:54;;;;;;;142.02;34.63;;;2.20;91.00;;;;;;5055816;28;20029;-80
2020/12/25 00:06:20;;;;;;;142.02;32.90;;;2.20;91.00;;;;;;5056243;28;20021;-80
2020/12/25 00:08:46;;;;;;;152.30;34.53;;;2.30;91.00;;;;;;5056324;28;20025;-80
2020/12/25 00:11:11;;;;;;;120.05;31.60;;;2.30;91.10;;;;;;5054301;28;20029;-79
2020/12/25 00:13:37;;;;;;;79.10;24.27;;;2.30;91.00;;;;;;5054838;28;20021;-79
2020/12/25 00:16:03;;;;;;;57.63;18.15;;;2.30;91.00;;;;;;5054788;28;20032;-78
2020/12/25 00:18:29;;;;;;;39.53;15.88;;;2.30;91.00;;;;;;5055809;28;20057;-78
2020/12/25 00:20:54;;;;;;;26.75;13.60;;;2.30;90.90;;;;;;5054615;28;20079;-77
2020/12/25 00:23:20;;;;;;;21.75;12.25;;;2.40;91.00;;;;;;5056003;28;20028;-77
2020/12/25 00:25:46;;;;;;;20.80;12.65;;;2.40;90.90;;;;;;5055575;28;20024;-77
2020/12/25 00:28:12;;;;;;;21.10;13.52;;;2.40;90.90;;;;;;5055871;28;20379;-82
2020/12/25 00:30:42;;;;;;;18.13;13.73;;;2.40;91.00;;;;;;5055349;28;20119;-79
2020/12/25 00:33:08;;;;;;;18.95;13.20;;;2.40;91.10;;;;;;5055659;28;20017;-79
2020/12/25 00:35:33;;;;;;;17.83;12.93;;;2.40;91.00;;;;;;5055342;28;20025;-80
2020/12/25 00:37:59;;;;;;;19.20;12.82;;;2.50;91.00;;;;;;5054171;28;20028;-78
2020/12/25 00:40:25;;;;;;;18.30;12.82;;;2.50;90.90;;;;;;5055526;28;20028;-80
2020/12/25 00:42:51;;;;;;;16.15;10.40;;;2.50;91.00;;;;;;5055480;28;20023;-78
2020/12/25 00:45:18;;;;;;;12.30;8.75;;;2.50;91.10;;;;;;5055320;28;20025;-78
2020/12/25 00:47:44;;;;;;;14.93;7.63;;;2.50;91.10;;;;;;5055282;28;20024;-81
2020/12/25 00:50:10;;;;;;;31.23;11.95;;;2.50;91.00;;;;;;5053877;28;20029;-78
2020/12/25 00:52:36;;;;;;;38.03;12.95;;;2.50;91.10;;;;;;5053920;28;20029;-77
2020/12/25 00:55:02;;;;;;;32.80;12.52;;;2.50;91.20;;;;;;5035328;28;20021;-80
2020/12/25 00:57:27;;;;;;;27.15;10.98;;;2.50;91.20;;;;;;5033825;28;20048;-77
2020/12/25 00:59:53;;;;;;;18.95;9.90;;;2.50;91.20;;;;;;5033786;28;20112;-78
2020/12/25 01:02:19;;;;;;;22.80;8.98;;;2.60;91.50;;;;;;5035344;28;20025;-78
2020/12/25 01:04:44;;;;;;;23.58;10.63;;;2.60;91.20;;;;;;5034982;28;20029;-78
2020/12/25 01:07:10;;;;;;;21.00;9.63;;;2.60;91.10;;;;;;5033722;28;20025;-79
2020/12/25 01:09:36;;;;;;;17.48;9.43;;;2.60;91.20;;;;;;5035344;28;20071;-79
2020/12/25 01:12:03;;;;;;;19.40;9.75;;;2.60;91.20;;;;;;5034834;28;20482;-79
2020/12/25 01:14:31;;;;;;;16.08;8.52;;;2.60;91.20;;;;;;5033948;28;20028;-79
2020/12/25 01:16:58;;;;;;;14.90;8.40;;;2.60;91.10;;;;;;5033518;28;20183;-78
2020/12/25 01:19:25;;;;;;;13.75;8.07;;;2.60;91.20;;;;;;5034760;28;20021;-78
2020/12/25 01:21:51;;;;;;;11.27;7.53;;;2.70;91.20;;;;;;5034800;28;20044;-78
2020/12/25 01:24:17;;;;;;;16.35;10.55;;;2.70;91.20;;;;;;5033327;28;20462;-79
2020/12/25 01:26:42;;;;;;;14.90;10.32;;;2.70;91.20;;;;;;5034582;28;20108;-79
2020/12/25 01:29:08;;;;;;;16.35;11.50;;;2.70;91.20;;;;;;5033891;28;20029;-79
2020/12/25 01:31:34;;;;;;;16.92;12.30;;;2.80;91.20;;;;;;5034180;28;20438;-79
2020/12/25 01:33:59;;;;;;;19.83;14.30;;;2.70;91.10;;;;;;5033227;28;20030;-78
2020/12/25 01:36:25;;;;;;;17.48;14.68;;;2.80;91.10;;;;;;5033128;28;20364;-79
2020/12/25 01:38:51;;;;;;;18.33;13.60;;;2.80;91.20;;;;;;5034710;28;20406;-78
2020/12/25 01:41:17;;;;;;;16.27;12.07;;;2.80;91.30;;;;;;5034571;28;20029;-78
2020/12/25 01:43:43;;;;;;;18.85;14.68;;;2.80;91.30;;;;;;5034526;28;20033;-78
2020/12/25 01:46:10;;;;;;;17.58;12.30;;;2.80;91.50;;;;;;5034153;28;20033;-77
2020/12/25 01:48:36;;;;;;;18.73;13.68;;;2.80;91.50;;;;;;5032874;28;20025;-78
2020/12/25 01:51:02;;;;;;;23.52;17.98;;;2.80;91.50;;;;;;5033941;28;20123;-77
2020/12/25 01:53:28;;;;;;;28.10;21.20;;;2.90;91.50;;;;;;5034011;28;20455;-77
2020/12/25 01:55:57;;;;;;;24.45;18.48;;;2.90;91.60;;;;;;5032644;28;20025;-77
2020/12/25 01:58:24;;;;;;;24.48;16.75;;;2.90;91.70;;;;;;5033876;28;20025;-77
2020/12/25 02:00:51;;;;;;;18.38;13.55;;;3.00;91.80;;;;;;5032663;28;20033;-79
2020/12/25 02:03:17;;;;;;;11.63;8.40;;;3.00;91.60;;;;;;5032715;28;20030;-78
2020/12/25 02:05:44;;;;;;;8.63;6.63;;;3.00;91.70;;;;;;5037427;28;20033;-78
2020/12/25 02:08:11;;;;;;;8.07;6.03;;;3.10;91.70;;;;;;5054032;28;20360;-77
2020/12/25 02:10:37;;;;;;;7.53;5.70;;;3.20;91.60;;;;;;5052418;28;20459;-75
2020/12/25 02:13:05;;;;;;;8.90;5.95;;;3.20;91.60;;;;;;5053727;28;20100;-78
2020/12/25 02:15:31;;;;;;;10.52;6.97;;;3.20;91.40;;;;;;5040932;28;20486;-77
2020/12/25 02:17:57;;;;;;;11.05;7.32;;;3.20;91.40;;;;;;5033979;28;20356;-77
2020/12/25 02:20:23;;;;;;;8.73;6.82;;;3.30;91.50;;;;;;5032396;28;20083;-77
2020/12/25 02:22:48;;;;;;;8.50;6.18;;;3.30;91.40;;;;;;5033500;28;20029;-77
2020/12/25 02:25:14;;;;;;;9.07;5.93;;;3.30;91.40;;;;;;5033503;28;20079;-77
2020/12/25 02:27:40;;;;;;;9.60;6.93;;;3.30;91.30;;;;;;5033389;28;20030;-79
2020/12/25 02:30:06;;;;;;;12.18;8.48;;;3.40;91.30;;;;;;5033239;28;20137;-80
2020/12/25 02:32:34;;;;;;;12.10;8.15;;;3.30;91.30;;;;;;5033559;28;20033;-79
2020/12/25 02:35:00;;;;;;;12.80;8.60;;;3.30;91.40;;;;;;5033711;28;20124;-76
2020/12/25 02:37:26;;;;;;;9.68;7.60;;;3.30;91.40;;;;;;5033497;28;20114;-77
2020/12/25 02:39:52;;;;;;;11.02;7.18;;;3.30;91.40;;;;;;5033832;28;20025;-76
2020/12/25 02:42:18;;;;;;;9.60;7.13;;;3.30;91.50;;;;;;5034111;28;20026;-76
2020/12/25 02:44:44;;;;;;;9.55;6.68;;;3.30;91.50;;;;;;5033468;28;20379;-76
2020/12/25 02:47:10;;;;;;;11.30;7.93;;;3.40;91.40;;;;;;5033662;28;20041;-77
2020/12/25 02:49:37;;;;;;;14.50;9.15;;;3.40;91.40;;;;;;5033328;28;20026;-77
2020/12/25 02:52:03;;;;;;;13.07;8.68;;;3.40;91.40;;;;;;5033401;28;20033;-78
2020/12/25 02:54:29;;;;;;;9.88;7.68;;;3.40;91.60;;;;;;5033386;28;20032;-77
2020/12/25 02:56:55;;;;;;;13.35;9.07;;;3.40;91.50;;;;;;5033214;28;20021;-77
2020/12/25 02:59:20;;;;;;;11.55;8.38;;;3.40;91.50;;;;;;5033608;28;20026;-76
2020/12/25 03:01:51;;;;;;;9.20;7.13;;;3.50;91.50;;;;;;5033207;28;20076;-77
2020/12/25 03:04:17;;;;;;;9.45;6.88;;;3.50;91.50;;;;;;5032291;28;20030;-77
2020/12/25 03:06:43;;;;;;;8.95;5.43;;;3.50;91.50;;;;;;5033317;28;20065;-76
2020/12/25 03:09:09;;;;;;;5.90;5.15;;;3.50;91.70;;;;;;5033252;28;20049;-77
2020/12/25 03:11:35;;;;;;;6.13;4.93;;;3.60;91.50;;;;;;5033486;28;20034;-76
2020/12/25 03:14:00;;;;;;;10.27;6.65;;;3.60;91.50;;;;;;5033287;28;20021;-76
2020/12/25 03:16:26;;;;;;;10.68;6.30;;;3.60;91.50;;;;;;5033213;28;20068;-76
2020/12/25 03:18:52;;;;;;;12.13;7.38;;;3.60;91.40;;;;;;5033192;28;20026;-78
2020/12/25 03:21:17;;;;;;;10.60;7.63;;;3.60;91.40;;;;;;5033090;28;20036;-76
2020/12/25 03:23:43;;;;;;;12.02;7.03;;;3.70;91.50;;;;;;5033244;28;20105;-77
2020/12/25 03:26:09;;;;;;;7.07;5.28;;;3.60;91.50;;;;;;5033086;28;20558;-77
2020/12/25 03:28:35;;;;;;;6.95;4.60;;;3.60;91.40;;;;;;5031881;28;20475;-76
2020/12/25 03:31:00;;;;;;;5.40;4.22;;;3.70;91.30;;;;;;5031372;28;20442;-76
2020/12/25 03:33:26;;;;;;;7.40;4.90;;;3.70;91.20;;;;;;5031674;28;20030;-76
2020/12/25 03:35:52;;;;;;;9.55;5.85;;;3.70;91.20;;;;;;5033275;28;20021;-78
2020/12/25 03:38:18;;;;;;;8.80;5.68;;;3.70;91.10;;;;;;5034248;28;20501;-76
2020/12/25 03:40:44;;;;;;;7.20;4.82;;;3.70;91.10;;;;;;5036515;28;20030;-76
2020/12/25 03:43:10;;;;;;;7.70;4.88;;;3.70;91.10;;;;;;5036368;28;20434;-77
2020/12/25 03:45:36;;;;;;;8.60;4.50;;;3.70;91.00;;;;;;5036312;28;20032;-77
2020/12/25 03:48:02;;;;;;;7.60;4.35;;;3.70;90.90;;;;;;5035175;28;20487;-76
2020/12/25 03:50:28;;;;;;;5.22;3.78;;;3.70;90.90;;;;;;5036217;28;20029;-75
2020/12/25 03:52:54;;;;;;;5.47;3.78;;;3.70;90.90;;;;;;5036279;28;20096;-74
2020/12/25 03:55:20;;;;;;;4.25;3.35;;;3.60;90.80;;;;;;5036287;28;20049;-75
2020/12/25 03:57:46;;;;;;;4.15;2.80;;;3.60;90.80;;;;;;5036233;28;20022;-76
2020/12/25 04:00:11;;;;;;;3.80;3.13;;;3.60;90.70;;;;;;5034715;28;20364;-75
2020/12/25 04:02:37;;;;;;;5.63;4.20;;;3.60;90.70;;;;;;5036193;28;20032;-74
2020/12/25 04:05:03;;;;;;;5.75;4.50;;;3.60;90.70;;;;;;5035892;28;20029;-76
2020/12/25 04:07:29;;;;;;;3.50;3.13;;;3.60;90.60;;;;;;5034716;28;20109;-75
2020/12/25 04:09:54;;;;;;;3.95;3.30;;;3.60;90.60;;;;;;5034760;28;20113;-77
2020/12/25 04:12:20;;;;;;;3.22;2.85;;;3.50;90.60;;;;;;5035991;28;20467;-78
2020/12/25 04:14:46;;;;;;;3.83;3.38;;;3.50;90.60;;;;;;5035927;28;20067;-81
2020/12/25 04:17:12;;;;;;;5.82;4.70;;;3.50;90.70;;;;;;5034666;28;20017;-80
2020/12/25 04:19:37;;;;;;;4.95;4.13;;;3.40;90.90;;;;;;5034582;28;20018;-78
2020/12/25 04:22:03;;;;;;;5.35;4.35;;;3.40;90.90;;;;;;5035996;28;20079;-79
2020/12/25 04:24:29;;;;;;;5.13;4.03;;;3.40;90.80;;;;;;5036267;28;20030;-80
2020/12/25 04:26:55;;;;;;;4.28;3.50;;;3.40;90.80;;;;;;5038367;28;20025;-74
2020/12/25 04:29:20;;;;;;;5.28;3.80;;;3.40;90.80;;;;;;5055025;28;20466;-77
2020/12/25 04:31:46;;;;;;;4.28;3.50;;;3.40;90.80;;;;;;5053886;28;20049;-76
2020/12/25 04:34:12;;;;;;;4.95;3.72;;;3.40;90.70;;;;;;5055725;28;20017;-80
2020/12/25 04:36:38;;;;;;;4.47;3.90;;;3.40;90.80;;;;;;5055464;28;20056;-81
2020/12/25 04:39:06;;;;;;;4.97;4.13;;;3.50;90.80;;;;;;5054034;28;20052;-80
2020/12/25 04:41:35;;;;;;;4.38;3.80;;;3.50;90.70;;;;;;5053974;28;20063;-78
2020/12/25 04:44:02;;;;;;;5.20;4.10;;;3.50;90.70;;;;;;5053747;28;20059;-76
2020/12/25 04:46:28;;;;;;;7.57;4.80;;;3.50;90.70;;;;;;5055256;28;20463;-77
2020/12/25 04:48:55;;;;;;;7.38;5.43;;;3.50;90.70;;;;;;5055171;28;20029;-77
2020/12/25 04:51:20;;;;;;;7.35;5.40;;;3.50;90.80;;;;;;5052986;28;20063;-76
2020/12/25 04:53:51;;;;;;;6.30;4.82;;;3.40;90.70;;;;;;5055066;28;20056;-77
2020/12/25 04:56:22;;;;;;;7.88;5.10;;;3.50;90.80;;;;;;5053757;28;20096;-76
2020/12/25 04:58:47;;;;;;;;;;;3.50;90.80;;;;;;5053595;28;20040;-76
2020/12/25 05:01:14;;;;;;;7.65;5.50;;;3.40;91.00;;;;;;5054607;28;19909;-77
2020/12/25 05:03:41;;;;;;;8.23;5.13;;;3.40;91.00;;;;;;5053063;28;20483;-75
2020/12/25 05:06:08;;;;;;;7.22;5.13;;;3.40;91.00;;;;;;5053855;28;20421;-76
2020/12/25 05:08:46;;;;;;;8.80;5.95;;;3.40;90.90;;;;;;5053303;28;20037;-77
2020/12/25 05:11:13;;;;;;;9.73;6.05;;;3.40;91.10;;;;;;5053151;28;20051;-76
2020/12/25 05:13:44;;;;;;;8.23;5.35;;;3.40;91.10;;;;;;5039248;28;20187;-76
2020/12/25 05:16:10;;;;;;;9.77;6.00;;;3.40;91.00;;;;;;5046176;28;20103;-76
2020/12/25 05:18:43;;;;;;;8.90;5.65;;;3.40;91.00;;;;;;5054537;28;20391;-76
2020/12/25 05:21:10;;;;;;;9.52;5.95;;;3.40;91.00;;;;;;5053263;28;20025;-76
2020/12/25 05:23:38;;;;;;;10.93;6.85;;;3.40;90.90;;;;;;5053322;28;20378;-76
2020/12/25 05:26:05;;;;;;;10.02;6.30;;;3.40;91.10;;;;;;5052761;28;20048;-75
2020/12/25 05:28:51;;;;;;;13.85;8.38;;;3.30;91.10;;;;;;5054521;28;20025;-76
2020/12/25 05:31:18;;;;;;;14.00;7.60;;;3.30;91.10;;;;;;5037964;28;20057;-76
2020/12/25 05:33:47;;;;;;;15.35;8.50;;;3.30;91.10;;;;;;5052465;28;20104;-76
2020/12/25 05:36:14;;;;;;;22.80;12.27;;;3.30;91.10;;;;;;5053880;28;20021;-81
2020/12/25 05:38:50;;;;;;;33.83;16.08;;;3.30;91.10;;;;;;5053879;28;20032;-77
2020/12/25 05:41:16;;;;;;;29.23;15.43;;;3.20;91.20;;;;;;5054182;28;20049;-77
2020/12/25 05:43:49;;;;;;;24.30;11.00;;;3.30;91.20;;;;;;5052705;28;20101;-78
2020/12/25 05:46:16;;;;;;;23.60;11.93;;;3.30;91.20;;;;;;5052497;28;20029;-76
2020/12/25 05:48:48;;;;;;;34.72;12.25;;;3.30;91.20;;;;;;5036757;28;20049;-73
2020/12/25 05:51:14;;;;;;;30.33;11.73;;;3.30;91.20;;;;;;5032943;28;20030;-75
2020/12/25 05:53:44;;;;;;;30.27;11.30;;;3.30;91.30;;;;;;5032833;28;20033;-75
2020/12/25 05:56:10;;;;;;;25.67;10.38;;;3.30;91.20;;;;;;5033952;28;20082;-75
2020/12/25 05:58:42;;;;;;;26.55;10.38;;;3.30;91.20;;;;;;5034102;28;20479;-76
2020/12/25 06:01:09;;;;;;;25.60;11.25;;;3.30;91.20;;;;;;5033588;28;20120;-76
2020/12/25 06:03:36;;;;;;;23.58;10.57;;;3.30;91.20;;;;;;5033893;28;20025;-76
2020/12/25 06:06:13;;;;;;;23.98;12.07;;;3.30;91.20;;;;;;5033720;28;20079;-78
2020/12/25 06:08:59;;;;;;;21.90;10.25;;;3.30;91.20;;;;;;5047943;28;20051;-78
2020/12/25 06:11:30;;;;;;;24.85;11.77;;;3.30;91.30;;;;;;5053731;28;20037;-80
2020/12/25 06:13:56;;;;;;;;;;;3.30;91.20;;;;;;5053649;28;20031;-80
2020/12/25 06:16:23;;;;;;;18.40;11.25;;;3.20;91.40;;;;;;5052017;28;19905;-82
2020/12/25 06:19:07;;;;;;;19.38;11.10;;;3.20;91.50;;;;;;5053275;28;20017;-80
2020/12/25 06:22:11;;;;;;;24.55;12.50;;;3.20;91.40;;;;;;5052966;28;20025;-79
2020/12/25 06:24:38;;;;;;;26.92;13.52;;;3.30;91.40;;;;;;5030650;28;20037;-81
2020/12/25 06:27:05;;;;;;;31.27;16.33;;;3.20;91.40;;;;;;5048408;28;20060;-83
2020/12/25 06:29:31;;;;;;;25.65;14.77;;;3.20;91.70;;;;;;5052273;28;20052;-81
2020/12/25 06:31:58;;;;;;;30.67;17.38;;;3.20;91.40;;;;;;5051521;28;20033;-82
2020/12/25 06:34:46;;;;;;;21.83;12.63;;;3.20;91.40;;;;;;5052923;28;20033;-78
2020/12/25 06:37:16;;;;;;;22.05;14.48;;;3.30;91.40;;;;;;5052941;28;20017;-84
2020/12/25 06:39:57;;;;;;;25.38;15.35;;;3.20;91.40;;;;;;5051932;28;20032;-83
2020/12/25 06:42:36;;;;;;;26.15;15.07;;;3.30;91.30;;;;;;5052919;28;20111;-82
2020/12/25 06:45:12;;;;;;;34.00;18.08;;;3.40;91.20;;;;;;5051775;28;20104;-81
2020/12/25 06:47:41;;;;;;;29.02;14.57;;;3.30;91.20;;;;;;5051999;28;20059;-83
2020/12/25 06:50:12;;;;;;;20.08;11.55;;;3.30;91.20;;;;;;5052902;28;20028;-85
2020/12/25 06:52:56;;;;;;;20.67;11.63;;;3.40;91.20;;;;;;5053105;28;20151;-84
2020/12/25 06:55:25;;;;;;;29.48;15.23;;;3.30;91.20;;;;;;5052246;28;20025;-87
2020/12/25 06:57:54;;;;;;;27.70;15.20;;;3.30;91.30;;;;;;5051855;28;20600;-87
2020/12/25 07:00:21;;;;;;;19.17;11.88;;;3.40;91.30;;;;;;5052208;28;20025;-82
2020/12/25 07:02:47;;;;;;;17.60;9.68;;;3.40;91.30;;;;;;5053199;28;20021;-81
2020/12/25 07:05:13;;;;;;;16.02;8.13;;;3.40;91.20;;;;;;5053174;28;20036;-87
2020/12/25 07:07:39;;;;;;;16.70;10.73;;;3.40;91.20;;;;;;5051912;28;20017;-88
2020/12/25 07:10:12;;;;;;;16.45;9.32;;;3.40;91.20;;;;;;5053037;28;20025;-84
2020/12/25 07:12:39;;;;;;;19.10;9.07;;;3.40;91.20;;;;;;5053308;28;20021;-82
2020/12/25 07:15:09;;;;;;;18.92;9.68;;;3.50;91.10;;;;;;5057002;28;20028;-86
2020/12/25 07:17:36;;;;;;;17.40;8.90;;;3.50;91.10;;;;;;5055765;28;20028;-87
2020/12/25 07:20:08;;;;;;;12.70;7.70;;;3.50;91.00;;;;;;5055854;28;20467;-87
2020/12/25 07:22:35;;;;;;;11.82;7.45;;;3.50;91.00;;;;;;5056154;28;20053;-87
2020/12/25 07:25:07;;;;;;;13.25;8.38;;;3.60;91.00;;;;;;5055677;28;20086;-87
2020/12/25 07:27:34;;;;;;;24.17;12.40;;;3.60;91.00;;;;;;5055788;28;20060;-85
2020/12/25 07:29:59;;;;;;;29.73;14.77;;;3.60;90.90;;;;;;5055990;28;20049;-88
2020/12/25 07:32:25;;;;;;;29.27;14.88;;;3.60;90.90;;;;;;5055852;28;20055;-87
2020/12/25 07:34:51;;;;;;;15.93;8.50;;;3.60;90.90;;;;;;5057381;28;20018;-84
2020/12/25 07:37:17;;;;;;;14.30;9.20;;;3.70;90.80;;;;;;5055888;28;20496;-84
2020/12/25 07:39:42;;;;;;;13.15;7.65;;;3.60;90.80;;;;;;5056053;28;20032;-85
2020/12/25 07:42:09;;;;;;;10.35;7.15;;;3.60;90.80;;;;;;5055910;28;20062;-87
2020/12/25 07:44:35;;;;;;;9.57;6.72;;;3.70;90.80;;;;;;5055977;28;20108;-88
2020/12/25 07:47:01;;;;;;;11.57;6.93;;;3.60;90.80;;;;;;5055961;28;20463;-88
2020/12/25 07:49:30;;;;;;;13.35;8.68;;;3.60;90.80;;;;;;5055808;28;20033;-88
2020/12/25 07:51:58;;;;;;;14.43;8.90;;;3.70;90.80;;;;;;5055678;28;20071;-87
2020/12/25 07:54:25;;;;;;;10.75;7.57;;;3.70;90.70;;;;;;5055636;28;20116;-88
2020/12/25 07:56:53;;;;;;;12.23;8.30;;;3.70;90.70;;;;;;5055568;28;20027;-88
2020/12/25 07:59:21;;;;;;;15.00;9.70;;;3.70;90.70;;;;;;5055647;28;20052;-88
2020/12/25 08:01:47;;;;;;;13.40;9.38;;;3.70;90.70;;;;;;5056566;28;20482;-88
2020/12/25 08:04:12;;;;;;;16.98;11.88;;;3.70;90.70;;;;;;5056328;28;20028;-87
2020/12/25 08:06:38;;;;;;;14.20;9.00;;;3.70;90.60;;;;;;5055368;28;20029;-86
2020/12/25 08:09:10;;;;;;;13.48;7.40;;;3.80;90.70;;;;;;5055120;28;20025;-87
2020/12/25 08:11:40;;;;;;;16.58;9.00;;;3.80;90.60;;;;;;5055345;28;20032;-86
2020/12/25 08:14:07;;;;;;;17.33;10.63;;;3.80;90.60;;;;;;5056364;28;20348;-86
2020/12/25 08:16:37;;;;;;;15.40;8.93;;;3.70;90.60;;;;;;5055084;28;20124;-87
2020/12/25 08:19:03;;;;;;;14.10;7.60;;;3.70;90.60;;;;;;5056166;28;20035;-87
2020/12/25 08:21:33;;;;;;;16.52;7.55;;;3.70;90.60;;;;;;5056231;28;20048;-86
2020/12/25 08:24:01;;;;;;;15.88;7.75;;;3.80;90.60;;;;;;5054742;28;20036;-88
2020/12/25 08:26:31;;;;;;;19.30;8.93;;;3.80;90.60;;;;;;5056062;28;20083;-79
2020/12/25 08:28:57;;;;;;;16.80;7.50;;;3.80;90.60;;;;;;5055979;28;20026;-87
2020/12/25 08:31:23;;;;;;;18.88;9.15;;;3.80;90.60;;;;;;5055716;28;20055;-86
2020/12/25 08:33:56;;;;;;;18.75;8.52;;;3.80;90.60;;;;;;5054626;28;20021;-87
2020/12/25 08:36:23;;;;;;;17.73;8.55;;;3.90;90.60;;;;;;5055786;28;20035;-86
2020/12/25 08:38:49;;;;;;;20.80;9.38;;;3.90;90.60;;;;;;5054437;28;20052;-87
2020/12/25 08:41:15;;;;;;;18.05;9.57;;;3.90;90.60;;;;;;5054682;28;20032;-87
2020/12/25 08:43:41;;;;;;;29.25;13.10;;;3.90;90.60;;;;;;5054496;28;20028;-87
2020/12/25 08:46:07;;;;;;;21.08;10.57;;;3.90;90.60;;;;;;5054569;28;20087;-87
2020/12/25 08:48:46;;;;;;;25.45;11.30;;;4.00;90.60;;;;;;5054536;28;20095;-83
2020/12/25 08:51:16;;;;;;;22.95;10.77;;;4.00;90.60;;;;;;5054273;28;20021;-87
2020/12/25 08:53:55;;;;;;;28.58;12.02;;;4.10;90.60;;;;;;5054300;28;20107;-86
2020/12/25 08:56:26;;;;;;;28.05;12.05;;;4.10;90.50;;;;;;5055420;28;20021;-86
2020/12/25 08:59:02;;;;;;;26.95;11.95;;;4.10;90.50;;;;;;5053951;28;20775;-86
2020/12/25 09:01:31;;;;;;;36.47;13.40;;;4.10;90.50;;;;;;5055126;28;20083;-85
2020/12/25 09:03:58;;;;;;;37.72;15.90;;;4.10;90.50;;;;;;5055218;28;20366;-84
2020/12/25 09:06:24;;;;;;;35.65;15.40;;;4.20;90.50;;;;;;5053721;28;20031;-84
2020/12/25 09:08:50;;;;;;;39.63;17.38;;;4.20;90.50;;;;;;5054911;28;20025;-84
2020/12/25 09:11:18;;;;;;;58.65;27.80;;;4.20;90.50;;;;;;5054643;28;20025;-85
2020/12/25 09:13:45;;;;;;;31.15;16.08;;;4.20;90.40;;;;;;5054802;28;20021;-85
2020/12/25 09:16:11;;;;;;;24.52;13.30;;;4.20;90.50;;;;;;5054702;28;20387;-82
2020/12/25 09:18:39;;;;;;;20.42;11.80;;;4.30;90.50;;;;;;5054587;28;20099;-83
2020/12/25 09:21:07;;;;;;;27.42;13.55;;;4.30;90.50;;;;;;5053283;28;20021;-82
2020/12/25 09:23:33;;;;;;;27.67;11.50;;;4.30;90.50;;;;;;5052747;28;20029;-83
2020/12/25 09:25:59;;;;;;;32.63;11.77;;;4.40;90.50;;;;;;5053073;28;20082;-83
2020/12/25 09:28:25;;;;;;;20.75;11.00;;;4.30;90.30;;;;;;5054414;28;20471;-82
2020/12/25 09:30:52;;;;;;;28.95;12.77;;;4.40;90.30;;;;;;5053987;28;20063;-82
2020/12/25 09:33:18;;;;;;;32.40;14.73;;;4.40;90.40;;;;;;5053039;28;20053;-83
2020/12/25 09:35:44;;;;;;;40.00;15.25;;;4.40;90.40;;;;;;5053654;28;20014;-82
2020/12/25 09:38:09;;;;;;;44.95;18.30;;;4.40;90.40;;;;;;5052927;28;20028;-81
2020/12/25 09:40:35;;;;;;;46.55;17.42;;;4.30;90.50;;;;;;5054045;28;20028;-80
2020/12/25 09:43:01;;;;;;;49.83;21.23;;;4.40;90.50;;;;;;5053886;28;20024;-83
2020/12/25 09:45:27;;;;;;;49.35;18.17;;;4.40;90.40;;;;;;5052395;28;20025;-83
2020/12/25 09:47:52;;;;;;;53.33;19.17;;;4.30;90.40;;;;;;5052622;28;20025;-84
2020/12/25 09:50:18;;;;;;;48.58;17.77;;;4.30;90.40;;;;;;5052447;28;20025;-75
2020/12/25 09:52:44;;;;;;;74.57;29.10;;;4.40;90.40;;;;;;5053573;28;20048;-81
2020/12/25 09:55:09;;;;;;;47.22;20.88;;;4.40;90.40;;;;;;5053798;28;20039;-81
2020/12/25 09:57:35;;;;;;;60.20;23.40;;;4.50;90.40;;;;;;5052773;28;20021;-74
2020/12/25 10:00:11;;;;;;;56.40;22.48;;;4.50;90.40;;;;;;5053398;28;20025;-74
2020/12/25 10:02:37;;;;;;;46.50;22.83;;;4.60;90.40;;;;;;5054185;28;20021;-75
2020/12/25 10:05:09;;;;;;;49.58;20.25;;;4.60;90.40;;;;;;5054254;28;20052;-74
2020/12/25 10:07:35;;;;;;;132.77;76.38;;;4.60;90.30;;;;;;5053887;28;20467;-81
2020/12/25 10:10:02;;;;;;;46.47;21.33;;;4.60;90.40;;;;;;5052424;28;20036;-80
2020/12/25 10:12:28;;;;;;;37.33;19.48;;;4.70;90.50;;;;;;5053615;28;20053;-80
2020/12/25 10:14:54;;;;;;;45.10;17.63;;;4.70;90.40;;;;;;5052195;28;20064;-84
2020/12/25 10:17:20;;;;;;;39.10;17.10;;;4.70;90.40;;;;;;5052290;28;20474;-80
2020/12/25 10:19:46;;;;;;;67.30;36.03;;;4.70;90.60;;;;;;5053616;28;20143;-80
2020/12/25 10:22:12;;;;;;;50.83;21.33;;;4.70;90.40;;;;;;5053622;28;20025;-82
2020/12/25 10:24:38;;;;;;;47.10;21.08;;;4.70;90.30;;;;;;5053667;28;20075;-81
2020/12/25 10:27:04;;;;;;;94.82;56.58;;;4.70;90.30;;;;;;5052393;28;20541;-80
2020/12/25 10:29:30;;;;;;;61.08;23.42;;;4.70;90.30;;;;;;5053430;28;20029;-81
2020/12/25 10:31:56;;;;;;;44.25;19.50;;;4.70;90.30;;;;;;5053084;28;20068;-81
2020/12/25 10:34:22;;;;;;;55.40;23.13;;;4.70;90.20;;;;;;5053390;28;20069;-82
2020/12/25 10:36:48;;;;;;;49.55;20.33;;;4.70;90.20;;;;;;5053494;28;20104;-82
2020/12/25 10:39:15;;;;;;;43.35;20.27;;;4.80;90.20;;;;;;5052127;28;20027;-80
2020/12/25 10:41:41;;;;;;;39.58;17.92;;;4.80;90.20;;;;;;5052250;28;20025;-81
2020/12/25 10:44:08;;;;;;;49.17;20.00;;;4.80;90.20;;;;;;5052075;28;20099;-80
2020/12/25 10:46:35;;;;;;;48.40;20.23;;;4.80;90.20;;;;;;5053530;28;20021;-80
2020/12/25 10:49:00;;;;;;;36.85;16.50;;;4.90;90.30;;;;;;5056263;28;20025;-80
2020/12/25 10:51:26;;;;;;;49.03;21.08;;;4.90;90.30;;;;;;5057414;28;20032;-80
2020/12/25 10:53:52;;;;;;;38.30;18.00;;;4.90;90.40;;;;;;5057413;28;20028;-81
2020/12/25 10:56:26;;;;;;;35.90;17.92;;;5.00;90.40;;;;;;5055097;28;20066;-81
2020/12/25 10:58:53;;;;;;;46.88;20.45;;;5.00;90.40;;;;;;5055145;28;20534;-81
2020/12/25 11:01:27;;;;;;;40.58;19.58;;;5.10;90.40;;;;;;5053637;28;20032;-80
2020/12/25 11:03:53;;;;;;;37.22;18.42;;;5.10;90.40;;;;;;5055231;28;20407;-80
2020/12/25 11:06:29;;;;;;;36.40;18.83;;;5.20;90.40;;;;;;5053876;28;20032;-80
2020/12/25 11:08:54;;;;;;;49.92;27.60;;;5.20;90.30;;;;;;5055115;28;20029;-80
2020/12/25 11:11:41;;;;;;;42.78;21.60;;;5.30;90.30;;;;;;5055488;28;20036;-83
2020/12/25 11:14:08;;;;;;;37.90;19.90;;;5.30;90.20;;;;;;5055919;28;20025;-80
2020/12/25 11:16:35;;;;;;;43.72;23.02;;;5.30;90.10;;;;;;5055917;28;20043;-80
2020/12/25 11:19:02;;;;;;;52.40;26.50;;;5.30;90.20;;;;;;5054881;28;20025;-80
2020/12/25 11:21:30;;;;;;;53.50;27.30;;;5.30;90.20;;;;;;5053752;28;20784;-80
2020/12/25 11:23:57;;;;;;;43.30;21.05;;;5.40;90.20;;;;;;5056233;28;20139;-80
2020/12/25 11:26:26;;;;;;;55.38;24.40;;;5.40;90.20;;;;;;5055384;28;20059;-81
2020/12/25 11:28:57;;;;;;;51.22;25.38;;;5.40;90.10;;;;;;5054610;28;20483;-81
2020/12/25 11:31:24;;;;;;;49.42;24.92;;;5.50;90.10;;;;;;5054078;28;20056;-83
2020/12/25 11:33:51;;;;;;;52.28;25.80;;;5.40;90.10;;;;;;5055947;28;20044;-82
2020/12/25 11:36:32;;;;;;;58.60;27.75;;;5.50;90.10;;;;;;5055345;28;20025;-80
2020/12/25 11:39:04;;;;;;;72.00;37.92;;;5.50;90.10;;;;;;5056170;28;20021;-81
2020/12/25 11:41:30;;;;;;;59.05;27.45;;;5.50;90.10;;;;;;5055942;28;20059;-80
2020/12/25 11:43:56;;;;;;;52.58;25.08;;;5.60;90.20;;;;;;5055151;28;20044;-80
2020/12/25 11:46:26;;;;;;;58.28;25.75;;;5.50;90.10;;;;;;5055875;28;20021;-80
2020/12/25 11:48:52;;;;;;;51.13;22.55;;;5.60;90.20;;;;;;5056405;28;20079;-80
2020/12/25 11:51:20;;;;;;;51.78;24.45;;;5.60;90.20;;;;;;5056182;28;20095;-80
2020/12/25 11:53:46;;;;;;;50.75;23.73;;;5.60;90.20;;;;;;5055736;28;20036;-80
2020/12/25 11:56:17;;;;;;;44.17;21.60;;;5.70;90.30;;;;;;5056235;28;20048;-81
2020/12/25 11:58:42;;;;;;;39.55;21.40;;;5.70;90.20;;;;;;5053457;28;20017;-79
2020/12/25 12:01:08;;;;;;;56.28;26.40;;;5.80;90.20;;;;;;5055484;28;20074;-80
2020/12/25 12:03:34;;;;;;;56.53;26.38;;;5.80;90.10;;;;;;5055081;28;20025;-81
2020/12/25 12:06:00;;;;;;;54.88;27.17;;;5.80;90.00;;;;;;5054238;28;20437;-80
2020/12/25 12:08:26;;;;;;;48.83;23.92;;;5.80;90.00;;;;;;5055832;28;20417;-79
2020/12/25 12:10:52;;;;;;;51.80;25.13;;;5.80;90.00;;;;;;5055096;28;20036;-80
2020/12/25 12:13:18;;;;;;;51.88;23.63;;;5.80;90.00;;;;;;5053859;28;20021;-81
2020/12/25 12:16:11;;;;;;;49.30;24.08;;;5.90;90.00;;;;;;5053236;28;20164;-80
2020/12/25 12:18:37;;;;;;;76.57;33.88;;;5.90;90.00;;;;;;5053241;28;20075;-81
2020/12/25 12:21:02;;;;;;;58.80;27.65;;;5.90;90.00;;;;;;5055627;28;20029;-83
2020/12/25 12:23:28;;;;;;;48.28;24.63;;;5.90;90.00;;;;;;5054386;28;20025;-83
2020/12/25 12:25:54;;;;;;;53.83;26.58;;;5.90;90.00;;;;;;5054375;28;20124;-83
2020/12/25 12:28:19;;;;;;;52.05;26.92;;;5.90;90.00;;;;;;5054403;28;20033;-81
2020/12/25 12:30:47;;;;;;;51.72;27.83;;;5.80;90.20;;;;;;5055028;28;20820;-82
2020/12/25 12:33:13;;;;;;;56.63;28.52;;;5.80;89.90;;;;;;5055239;28;20117;-80
2020/12/25 12:35:39;;;;;;;53.53;29.20;;;5.90;89.90;;;;;;5055474;28;20028;-80
2020/12/25 12:38:05;;;;;;;47.90;27.15;;;5.80;89.80;;;;;;5054191;28;20021;-80
2020/12/25 12:40:31;;;;;;;53.42;30.23;;;5.80;89.80;;;;;;5053979;28;20025;-80
2020/12/25 12:42:56;;;;;;;57.75;29.13;;;5.80;89.90;;;;;;5053856;28;20028;-79
2020/12/25 12:45:22;;;;;;;52.67;28.42;;;5.90;89.90;;;;;;5053916;28;20032;-79